sensor_id;sensor_type;location;lat;lon;timestamp;pressure;altitude;pressure_sealevel;temperature;humidity
53300;BME280;39187;48.476;8.310;2023-02-15T00:00:12;92340.66;;;6.22;52.18
53300;BME280;39187;48.476;8.310;2023-02-15T00:02:39;92339.84;;;6.18;51.41
53300;BME280;39187;48.476;8.310;2023-02-15T00:05:05;92331.22;;;6.21;49.79
53300;BME280;39187;48.476;8.310;2023-02-15T00:07:30;92336.97;;;6.26;46.53
53300;BME280;39187;48.476;8.310;2023-02-15T00:09:56;92331.25;;;6.24;44.15
53300;BME280;39187;48.476;8.310;2023-02-15T00:12:22;92332.13;;;6.32;42.68
53300;BME280;39187;48.476;8.310;2023-02-15T00:14:47;92327.63;;;6.36;41.69
53300;BME280;39187;48.476;8.310;2023-02-15T00:17:13;92313.72;;;6.42;40.48
53300;BME280;39187;48.476;8.310;2023-02-15T00:19:39;92310.75;;;6.48;39.85
53300;BME280;39187;48.476;8.310;2023-02-15T00:22:05;92315.25;;;6.43;39.29
53300;BME280;39187;48.476;8.310;2023-02-15T00:24:31;92304.78;;;6.51;39.62
53300;BME280;39187;48.476;8.310;2023-02-15T00:26:57;92309.69;;;6.52;38.44
53300;BME280;39187;48.476;8.310;2023-02-15T00:29:23;92308.13;;;6.48;37.37
53300;BME280;39187;48.476;8.310;2023-02-15T00:31:48;92311.19;;;6.50;36.76
53300;BME280;39187;48.476;8.310;2023-02-15T00:34:17;92312.47;;;6.63;36.97
53300;BME280;39187;48.476;8.310;2023-02-15T00:36:43;92309.13;;;6.69;36.77
53300;BME280;39187;48.476;8.310;2023-02-15T00:39:10;92304.97;;;6.68;36.34
53300;BME280;39187;48.476;8.310;2023-02-15T00:41:35;92308.00;;;6.70;36.16
53300;BME280;39187;48.476;8.310;2023-02-15T00:44:01;92308.78;;;6.71;36.35
53300;BME280;39187;48.476;8.310;2023-02-15T00:46:27;92304.28;;;6.75;36.36
53300;BME280;39187;48.476;8.310;2023-02-15T00:48:53;92304.69;;;6.77;36.17
53300;BME280;39187;48.476;8.310;2023-02-15T00:51:19;92305.06;;;6.79;35.75
53300;BME280;39187;48.476;8.310;2023-02-15T00:53:46;92312.22;;;6.75;35.57
53300;BME280;39187;48.476;8.310;2023-02-15T00:56:12;92312.28;;;6.82;35.71
53300;BME280;39187;48.476;8.310;2023-02-15T00:58:38;92305.53;;;6.84;36.16
53300;BME280;39187;48.476;8.310;2023-02-15T01:01:09;92304.38;;;6.85;36.44
53300;BME280;39187;48.476;8.310;2023-02-15T01:03:35;92311.03;;;6.72;36.06
53300;BME280;39187;48.476;8.310;2023-02-15T01:06:01;92307.06;;;6.89;36.07
53300;BME280;39187;48.476;8.310;2023-02-15T01:08:28;92302.19;;;6.91;37.25
53300;BME280;39187;48.476;8.310;2023-02-15T01:10:54;92309.38;;;6.91;37.03
53300;BME280;39187;48.476;8.310;2023-02-15T01:13:20;92297.63;;;6.92;37.81
53300;BME280;39187;48.476;8.310;2023-02-15T01:15:52;92299.59;;;6.98;37.60
53300;BME280;39187;48.476;8.310;2023-02-15T01:18:18;92306.81;;;7.01;38.59
53300;BME280;39187;48.476;8.310;2023-02-15T01:20:45;92298.50;;;7.03;37.66
53300;BME280;39187;48.476;8.310;2023-02-15T01:23:10;92299.63;;;7.02;38.04
53300;BME280;39187;48.476;8.310;2023-02-15T01:25:36;92284.50;;;7.02;37.89
53300;BME280;39187;48.476;8.310;2023-02-15T01:28:02;92286.41;;;7.02;37.46
53300;BME280;39187;48.476;8.310;2023-02-15T01:30:29;92294.41;;;7.09;37.22
53300;BME280;39187;48.476;8.310;2023-02-15T01:32:54;92283.47;;;7.10;36.96
53300;BME280;39187;48.476;8.310;2023-02-15T01:35:20;92291.00;;;7.08;37.47
53300;BME280;39187;48.476;8.310;2023-02-15T01:37:46;92278.53;;;7.12;37.49
53300;BME280;39187;48.476;8.310;2023-02-15T01:40:14;92274.78;;;7.13;36.60
53300;BME280;39187;48.476;8.310;2023-02-15T01:42:41;92269.13;;;7.15;36.99
53300;BME280;39187;48.476;8.310;2023-02-15T01:45:25;92268.00;;;7.16;35.93
53300;BME280;39187;48.476;8.310;2023-02-15T01:47:52;92272.56;;;7.19;36.23
53300;BME280;39187;48.476;8.310;2023-02-15T01:50:36;92261.25;;;7.22;36.38
53300;BME280;39187;48.476;8.310;2023-02-15T01:53:25;92265.78;;;7.25;36.50
53300;BME280;39187;48.476;8.310;2023-02-15T01:58:26;92264.25;;;7.24;36.03
53300;BME280;39187;48.476;8.310;2023-02-15T02:00:53;92256.72;;;7.22;36.51
53300;BME280;39187;48.476;8.310;2023-02-15T02:06:13;92254.41;;;7.21;36.73
53300;BME280;39187;48.476;8.310;2023-02-15T02:08:40;92259.34;;;7.22;37.04
53300;BME280;39187;48.476;8.310;2023-02-15T02:11:14;92257.84;;;7.21;37.88
53300;BME280;39187;48.476;8.310;2023-02-15T02:13:41;92255.53;;;7.20;38.39
53300;BME280;39187;48.476;8.310;2023-02-15T02:16:24;92251.78;;;7.21;38.92
53300;BME280;39187;48.476;8.310;2023-02-15T02:18:59;92254.03;;;7.19;39.51
53300;BME280;39187;48.476;8.310;2023-02-15T02:27:29;92250.22;;;7.16;40.08
53300;BME280;39187;48.476;8.310;2023-02-15T02:30:35;92247.19;;;7.18;39.55
53300;BME280;39187;48.476;8.310;2023-02-15T02:36:03;92247.59;;;7.20;40.48
53300;BME280;39187;48.476;8.310;2023-02-15T02:38:52;92245.66;;;7.17;40.50
53300;BME280;39187;48.476;8.310;2023-02-15T02:46:48;92242.59;;;7.11;39.23
53300;BME280;39187;48.476;8.310;2023-02-15T02:49:15;92245.25;;;7.08;39.31
53300;BME280;39187;48.476;8.310;2023-02-15T02:51:41;92240.31;;;7.06;39.48
53300;BME280;39187;48.476;8.310;2023-02-15T02:54:29;92239.91;;;7.04;38.80
53300;BME280;39187;48.476;8.310;2023-02-15T02:57:05;92241.81;;;7.04;38.49
53300;BME280;39187;48.476;8.310;2023-02-15T02:59:37;92240.66;;;7.05;37.82
53300;BME280;39187;48.476;8.310;2023-02-15T03:02:10;92242.94;;;7.06;38.44
53300;BME280;39187;48.476;8.310;2023-02-15T03:04:40;92231.97;;;7.04;38.55
53300;BME280;39187;48.476;8.310;2023-02-15T03:07:15;92235.75;;;7.03;37.83
53300;BME280;39187;48.476;8.310;2023-02-15T03:09:50;92236.09;;;7.02;38.84
53300;BME280;39187;48.476;8.310;2023-02-15T03:12:20;92233.06;;;7.00;38.37
53300;BME280;39187;48.476;8.310;2023-02-15T03:14:51;92233.81;;;7.00;38.74
53300;BME280;39187;48.476;8.310;2023-02-15T03:17:21;92236.47;;;7.00;38.57
53300;BME280;39187;48.476;8.310;2023-02-15T03:19:49;92232.66;;;6.98;38.54
53300;BME280;39187;48.476;8.310;2023-02-15T03:22:26;92232.66;;;6.98;39.20
53300;BME280;39187;48.476;8.310;2023-02-15T03:25:14;92223.97;;;6.97;38.76
53300;BME280;39187;48.476;8.310;2023-02-15T03:27:45;92228.50;;;6.97;38.73
53300;BME280;39187;48.476;8.310;2023-02-15T03:30:13;92225.06;;;6.93;39.30
53300;BME280;39187;48.476;8.310;2023-02-15T03:32:41;92224.28;;;6.92;38.90
53300;BME280;39187;48.476;8.310;2023-02-15T03:35:09;92222.41;;;6.89;39.32
53300;BME280;39187;48.476;8.310;2023-02-15T03:37:40;92232.56;;;6.87;38.61
53300;BME280;39187;48.476;8.310;2023-02-15T03:40:11;92221.97;;;6.83;39.07
53300;BME280;39187;48.476;8.310;2023-02-15T03:45:34;92226.06;;;6.77;38.34
53300;BME280;39187;48.476;8.310;2023-02-15T03:48:03;92224.94;;;6.78;37.62
53300;BME280;39187;48.476;8.310;2023-02-15T03:50:31;92217.41;;;6.80;36.96
53300;BME280;39187;48.476;8.310;2023-02-15T03:53:18;92223.44;;;6.81;36.29
53300;BME280;39187;48.476;8.310;2023-02-15T03:55:54;92223.09;;;6.86;35.25
53300;BME280;39187;48.476;8.310;2023-02-15T03:58:20;92223.16;;;6.90;36.03
53300;BME280;39187;48.476;8.310;2023-02-15T04:01:11;92225.41;;;6.88;35.75
53300;BME280;39187;48.476;8.310;2023-02-15T04:04:03;92223.56;;;6.95;36.04
53300;BME280;39187;48.476;8.310;2023-02-15T04:06:30;92218.69;;;6.97;35.65
53300;BME280;39187;48.476;8.310;2023-02-15T04:08:56;92217.94;;;6.97;36.22
53300;BME280;39187;48.476;8.310;2023-02-15T04:11:40;92217.94;;;6.97;37.04
53300;BME280;39187;48.476;8.310;2023-02-15T04:14:06;92223.56;;;6.95;36.52
53300;BME280;39187;48.476;8.310;2023-02-15T04:16:50;92217.88;;;6.93;37.25
53300;BME280;39187;48.476;8.310;2023-02-15T04:19:34;92230.72;;;6.91;37.67
53300;BME280;39187;48.476;8.310;2023-02-15T04:22:19;92227.63;;;6.85;37.31
53300;BME280;39187;48.476;8.310;2023-02-15T04:25:04;92227.59;;;6.78;37.89
53300;BME280;39187;48.476;8.310;2023-02-15T04:27:40;92227.91;;;6.73;38.18
53300;BME280;39187;48.476;8.310;2023-02-15T04:30:07;92219.94;;;6.70;38.30
53300;BME280;39187;48.476;8.310;2023-02-15T04:32:34;92221.06;;;6.65;38.58
53300;BME280;39187;48.476;8.310;2023-02-15T04:35:00;92217.94;;;6.60;37.88
53300;BME280;39187;48.476;8.310;2023-02-15T04:37:26;92215.28;;;6.56;38.46
53300;BME280;39187;48.476;8.310;2023-02-15T04:39:51;92215.25;;;6.53;38.45
53300;BME280;39187;48.476;8.310;2023-02-15T04:42:17;92208.81;;;6.50;38.45
53300;BME280;39187;48.476;8.310;2023-02-15T04:44:43;92218.22;;;6.48;37.74
53300;BME280;39187;48.476;8.310;2023-02-15T04:47:29;92204.22;;;6.47;37.84
53300;BME280;39187;48.476;8.310;2023-02-15T04:49:54;92207.59;;;6.44;37.74
53300;BME280;39187;48.476;8.310;2023-02-15T04:52:20;92205.69;;;6.41;37.91
53300;BME280;39187;48.476;8.310;2023-02-15T04:54:46;92212.06;;;6.36;37.94
53300;BME280;39187;48.476;8.310;2023-02-15T04:57:24;92211.63;;;6.31;37.58
53300;BME280;39187;48.476;8.310;2023-02-15T04:59:50;92210.44;;;6.25;37.64
53300;BME280;39187;48.476;8.310;2023-02-15T05:02:16;92217.16;;;6.19;38.08
53300;BME280;39187;48.476;8.310;2023-02-15T05:04:41;92211.44;;;6.13;38.21
53300;BME280;39187;48.476;8.310;2023-02-15T05:07:07;92209.84;;;6.09;38.30
53300;BME280;39187;48.476;8.310;2023-02-15T05:09:33;92205.63;;;6.00;38.47
53300;BME280;39187;48.476;8.310;2023-02-15T05:11:58;92213.13;;;5.95;38.20
53300;BME280;39187;48.476;8.310;2023-02-15T05:14:24;92208.13;;;5.90;38.37
53300;BME280;39187;48.476;8.310;2023-02-15T05:16:49;92215.19;;;5.82;38.33
53300;BME280;39187;48.476;8.310;2023-02-15T05:19:15;92214.03;;;5.80;38.28
53300;BME280;39187;48.476;8.310;2023-02-15T05:21:41;92219.56;;;5.71;38.60
53300;BME280;39187;48.476;8.310;2023-02-15T05:24:07;92216.81;;;5.64;38.68
53300;BME280;39187;48.476;8.310;2023-02-15T05:26:52;92203.69;;;5.68;38.50
53300;BME280;39187;48.476;8.310;2023-02-15T05:29:36;92214.28;;;5.71;38.49
53300;BME280;39187;48.476;8.310;2023-02-15T05:32:02;92204.88;;;5.74;38.14
53300;BME280;39187;48.476;8.310;2023-02-15T05:34:29;92204.47;;;5.72;37.48
53300;BME280;39187;48.476;8.310;2023-02-15T05:36:55;92201.03;;;5.68;37.29
53300;BME280;39187;48.476;8.310;2023-02-15T05:39:20;92199.69;;;5.81;37.19
53300;BME280;39187;48.476;8.310;2023-02-15T05:41:46;92193.78;;;5.87;36.89
53300;BME280;39187;48.476;8.310;2023-02-15T05:44:12;92205.13;;;5.91;36.36
53300;BME280;39187;48.476;8.310;2023-02-15T05:46:37;92196.53;;;5.98;36.14
53300;BME280;39187;48.476;8.310;2023-02-15T05:49:03;92198.84;;;6.03;35.68
53300;BME280;39187;48.476;8.310;2023-02-15T05:51:28;92201.50;;;6.03;35.99
53300;BME280;39187;48.476;8.310;2023-02-15T05:53:54;92211.28;;;6.02;36.06
53300;BME280;39187;48.476;8.310;2023-02-15T05:56:20;92209.78;;;6.01;36.34
53300;BME280;39187;48.476;8.310;2023-02-15T05:58:45;92209.72;;;5.94;36.45
53300;BME280;39187;48.476;8.310;2023-02-15T06:01:16;92216.09;;;5.93;36.90
53300;BME280;39187;48.476;8.310;2023-02-15T06:03:43;92220.50;;;5.86;36.73
53300;BME280;39187;48.476;8.310;2023-02-15T06:06:09;92228.44;;;5.86;37.32
53300;BME280;39187;48.476;8.310;2023-02-15T06:08:35;92221.63;;;5.85;36.69
53300;BME280;39187;48.476;8.310;2023-02-15T06:11:01;92220.41;;;5.79;37.18
53300;BME280;39187;48.476;8.310;2023-02-15T06:13:27;92222.88;;;5.64;37.62
53300;BME280;39187;48.476;8.310;2023-02-15T06:15:53;92227.47;;;5.71;37.45
53300;BME280;39187;48.476;8.310;2023-02-15T06:18:19;92229.22;;;5.60;37.70
53300;BME280;39187;48.476;8.310;2023-02-15T06:20:48;92234.75;;;5.51;37.85
53300;BME280;39187;48.476;8.310;2023-02-15T06:23:14;92245.28;;;5.21;38.69
53300;BME280;39187;48.476;8.310;2023-02-15T06:25:40;92244.09;;;5.45;38.64
53300;BME280;39187;48.476;8.310;2023-02-15T06:28:06;92244.09;;;5.45;38.81
53300;BME280;39187;48.476;8.310;2023-02-15T06:30:32;92249.75;;;5.44;38.84
53300;BME280;39187;48.476;8.310;2023-02-15T06:32:57;92241.44;;;5.42;39.04
53300;BME280;39187;48.476;8.310;2023-02-15T06:35:23;92243.72;;;5.43;39.01
53300;BME280;39187;48.476;8.310;2023-02-15T06:37:49;92244.88;;;5.46;39.41
53300;BME280;39187;48.476;8.310;2023-02-15T06:40:15;92245.69;;;5.50;39.90
53300;BME280;39187;48.476;8.310;2023-02-15T06:42:41;92248.78;;;5.55;40.05
53300;BME280;39187;48.476;8.310;2023-02-15T06:45:07;92245.31;;;5.78;40.35
53300;BME280;39187;48.476;8.310;2023-02-15T06:47:33;92246.38;;;5.99;40.27
53300;BME280;39187;48.476;8.310;2023-02-15T06:49:59;92253.91;;;6.31;39.84
53300;BME280;39187;48.476;8.310;2023-02-15T06:52:24;92246.69;;;6.61;39.52
53300;BME280;39187;48.476;8.310;2023-02-15T06:54:50;92244.38;;;6.97;39.05
53300;BME280;39187;48.476;8.310;2023-02-15T06:57:16;92238.59;;;7.32;38.70
53300;BME280;39187;48.476;8.310;2023-02-15T06:59:42;92236.06;;;7.49;38.54
53300;BME280;39187;48.476;8.310;2023-02-15T07:02:10;92240.84;;;7.84;37.67
53300;BME280;39187;48.476;8.310;2023-02-15T07:04:36;92239.50;;;8.26;37.09
53300;BME280;39187;48.476;8.310;2023-02-15T07:07:02;92239.31;;;8.63;36.37
53300;BME280;39187;48.476;8.310;2023-02-15T07:09:28;92245.81;;;8.97;35.38
53300;BME280;39187;48.476;8.310;2023-02-15T07:11:54;92236.75;;;9.19;35.07
53300;BME280;39187;48.476;8.310;2023-02-15T07:14:38;92228.75;;;9.48;33.37
53300;BME280;39187;48.476;8.310;2023-02-15T07:17:06;92239.28;;;10.08;33.16
53300;BME280;39187;48.476;8.310;2023-02-15T07:19:32;92244.44;;;10.58;32.72
53300;BME280;39187;48.476;8.310;2023-02-15T07:21:57;92246.16;;;10.96;32.89
53300;BME280;39187;48.476;8.310;2023-02-15T07:24:23;92250.22;;;11.18;31.74
53300;BME280;39187;48.476;8.310;2023-02-15T07:26:49;92244.19;;;11.59;31.47
53300;BME280;39187;48.476;8.310;2023-02-15T07:29:14;92235.03;;;12.04;30.83
53300;BME280;39187;48.476;8.310;2023-02-15T07:31:41;92240.25;;;12.49;30.18
53300;BME280;39187;48.476;8.310;2023-02-15T07:34:10;92241.25;;;12.93;29.88
53300;BME280;39187;48.476;8.310;2023-02-15T07:36:36;92234.56;;;13.08;29.41
53300;BME280;39187;48.476;8.310;2023-02-15T07:39:02;92236.69;;;13.47;29.33
53300;BME280;39187;48.476;8.310;2023-02-15T07:41:28;92234.72;;;13.74;28.27
53300;BME280;39187;48.476;8.310;2023-02-15T07:43:53;92235.94;;;13.93;28.35
53300;BME280;39187;48.476;8.310;2023-02-15T07:46:19;92233.38;;;14.29;27.82
53300;BME280;39187;48.476;8.310;2023-02-15T07:48:46;92232.78;;;14.61;27.28
53300;BME280;39187;48.476;8.310;2023-02-15T07:51:13;92233.41;;;14.88;26.84
53300;BME280;39187;48.476;8.310;2023-02-15T07:53:40;92230.53;;;15.15;26.87
53300;BME280;39187;48.476;8.310;2023-02-15T07:56:11;92226.78;;;15.45;25.94
53300;BME280;39187;48.476;8.310;2023-02-15T07:58:37;92223.22;;;15.68;26.03
53300;BME280;39187;48.476;8.310;2023-02-15T08:01:20;92228.25;;;15.66;25.82
53300;BME280;39187;48.476;8.310;2023-02-15T08:03:47;92221.34;;;15.97;26.16
53300;BME280;39187;48.476;8.310;2023-02-15T08:06:13;92223.31;;;16.25;25.59
53300;BME280;39187;48.476;8.310;2023-02-15T08:08:40;92218.34;;;16.53;24.96
53300;BME280;39187;48.476;8.310;2023-02-15T08:13:58;92220.00;;;17.04;24.57
53300;BME280;39187;48.476;8.310;2023-02-15T08:21:47;92219.38;;;17.51;23.89
53300;BME280;39187;48.476;8.310;2023-02-15T08:24:15;92221.25;;;17.67;23.96
53300;BME280;39187;48.476;8.310;2023-02-15T08:26:41;92216.53;;;17.92;24.07
53300;BME280;39187;48.476;8.310;2023-02-15T08:29:07;92218.44;;;18.17;23.49
53300;BME280;39187;48.476;8.310;2023-02-15T08:31:34;92214.34;;;18.13;23.58
53300;BME280;39187;48.476;8.310;2023-02-15T08:34:00;92218.38;;;17.95;23.47
53300;BME280;39187;48.476;8.310;2023-02-15T08:36:28;92219.09;;;18.09;23.35
53300;BME280;39187;48.476;8.310;2023-02-15T08:38:57;92213.75;;;18.30;23.32
53300;BME280;39187;48.476;8.310;2023-02-15T08:41:36;92220.03;;;18.62;23.02
53300;BME280;39187;48.476;8.310;2023-02-15T08:44:05;92221.75;;;18.77;23.35
53300;BME280;39187;48.476;8.310;2023-02-15T08:46:34;92216.72;;;18.89;22.98
53300;BME280;39187;48.476;8.310;2023-02-15T08:49:01;92223.34;;;18.88;22.61
53300;BME280;39187;48.476;8.310;2023-02-15T08:51:29;92225.41;;;19.14;22.80
53300;BME280;39187;48.476;8.310;2023-02-15T08:53:56;92221.75;;;18.99;23.18
53300;BME280;39187;48.476;8.310;2023-02-15T08:56:26;92215.53;;;19.11;23.14
53300;BME280;39187;48.476;8.310;2023-02-15T08:58:55;92221.53;;;19.15;22.50
53300;BME280;39187;48.476;8.310;2023-02-15T09:01:23;92225.13;;;19.12;22.90
53300;BME280;39187;48.476;8.310;2023-02-15T09:03:51;92210.59;;;18.88;22.37
53300;BME280;39187;48.476;8.310;2023-02-15T09:06:20;92224.06;;;19.10;22.31
53300;BME280;39187;48.476;8.310;2023-02-15T09:08:46;92216.44;;;19.17;21.71
53300;BME280;39187;48.476;8.310;2023-02-15T09:11:15;92221.78;;;19.08;22.09
53300;BME280;39187;48.476;8.310;2023-02-15T09:14:05;92216.63;;;19.23;21.61
53300;BME280;39187;48.476;8.310;2023-02-15T09:16:34;92216.19;;;18.94;22.12
53300;BME280;39187;48.476;8.310;2023-02-15T09:19:00;92222.25;;;18.85;22.23
53300;BME280;39187;48.476;8.310;2023-02-15T09:21:33;92215.72;;;18.95;22.50
53300;BME280;39187;48.476;8.310;2023-02-15T09:24:02;92213.94;;;19.01;22.53
53300;BME280;39187;48.476;8.310;2023-02-15T09:26:31;92210.22;;;18.99;22.04
53300;BME280;39187;48.476;8.310;2023-02-15T09:28:59;92217.22;;;18.96;22.03
53300;BME280;39187;48.476;8.310;2023-02-15T09:31:47;92207.00;;;18.69;21.98
53300;BME280;39187;48.476;8.310;2023-02-15T09:34:15;92209.22;;;18.83;22.48
53300;BME280;39187;48.476;8.310;2023-02-15T09:36:43;92211.66;;;18.91;22.14
53300;BME280;39187;48.476;8.310;2023-02-15T09:39:14;92206.25;;;18.91;22.43
53300;BME280;39187;48.476;8.310;2023-02-15T10:06:30;92203.91;;;18.02;21.72
53300;BME280;39187;48.476;8.310;2023-02-15T10:09:19;92200.66;;;17.47;22.46
53300;BME280;39187;48.476;8.310;2023-02-15T10:28:56;92220.44;;;16.32;25.08
53300;BME280;39187;48.476;8.310;2023-02-15T10:31:28;92207.81;;;16.74;24.23
53300;BME280;39187;48.476;8.310;2023-02-15T10:45:10;92196.47;;;15.64;24.68
53300;BME280;39187;48.476;8.310;2023-02-15T11:01:26;92199.00;;;14.47;26.13
53300;BME280;39187;48.476;8.310;2023-02-15T11:06:36;92200.34;;;14.16;26.96
53300;BME280;39187;48.476;8.310;2023-02-15T11:09:10;92197.41;;;14.30;26.81
53300;BME280;39187;48.476;8.310;2023-02-15T11:11:40;92206.91;;;13.91;27.71
53300;BME280;39187;48.476;8.310;2023-02-15T11:17:17;92192.00;;;13.90;27.76
53300;BME280;39187;48.476;8.310;2023-02-15T11:22:16;92185.97;;;13.16;28.76
53300;BME280;39187;48.476;8.310;2023-02-15T11:24:43;92190.28;;;13.07;29.01
53300;BME280;39187;48.476;8.310;2023-02-15T11:27:22;92185.66;;;13.11;28.81
53300;BME280;39187;48.476;8.310;2023-02-15T11:30:03;92182.22;;;13.37;28.91
53300;BME280;39187;48.476;8.310;2023-02-15T11:32:43;92186.22;;;13.49;29.03
53300;BME280;39187;48.476;8.310;2023-02-15T11:40:36;92176.91;;;13.34;29.97
53300;BME280;39187;48.476;8.310;2023-02-15T11:43:37;92179.75;;;13.46;30.57
53300;BME280;39187;48.476;8.310;2023-02-15T11:46:05;92173.16;;;13.54;30.27
53300;BME280;39187;48.476;8.310;2023-02-15T11:48:32;92167.09;;;13.50;30.57
53300;BME280;39187;48.476;8.310;2023-02-15T11:51:00;92170.19;;;12.99;31.39
53300;BME280;39187;48.476;8.310;2023-02-15T11:53:30;92168.00;;;12.90;30.92
53300;BME280;39187;48.476;8.310;2023-02-15T11:55:57;92165.34;;;13.17;30.90
53300;BME280;39187;48.476;8.310;2023-02-15T11:58:40;92164.69;;;13.06;31.54
53300;BME280;39187;48.476;8.310;2023-02-15T12:01:13;92163.84;;;13.16;31.36
53300;BME280;39187;48.476;8.310;2023-02-15T12:06:29;92153.28;;;13.05;31.18
53300;BME280;39187;48.476;8.310;2023-02-15T12:09:02;92153.38;;;13.25;31.09
53300;BME280;39187;48.476;8.310;2023-02-15T12:11:39;92157.31;;;13.17;31.42
53300;BME280;39187;48.476;8.310;2023-02-15T12:14:10;92154.13;;;13.25;31.32
53300;BME280;39187;48.476;8.310;2023-02-15T12:16:51;92150.72;;;12.98;31.30
53300;BME280;39187;48.476;8.310;2023-02-15T12:19:39;92144.63;;;12.98;32.37
53300;BME280;39187;48.476;8.310;2023-02-15T12:22:22;92150.53;;;13.09;32.54
53300;BME280;39187;48.476;8.310;2023-02-15T12:24:51;92153.03;;;13.23;31.99
53300;BME280;39187;48.476;8.310;2023-02-15T12:27:23;92140.41;;;12.43;33.04
53300;BME280;39187;48.476;8.310;2023-02-15T12:29:58;92150.06;;;12.64;32.44
53300;BME280;39187;48.476;8.310;2023-02-15T12:32:27;92149.50;;;13.03;31.73
53300;BME280;39187;48.476;8.310;2023-02-15T12:37:32;92140.97;;;12.58;33.27
53300;BME280;39187;48.476;8.310;2023-02-15T12:40:02;92143.53;;;12.38;32.81
53300;BME280;39187;48.476;8.310;2023-02-15T12:42:41;92139.91;;;12.52;33.17
53300;BME280;39187;48.476;8.310;2023-02-15T12:45:34;92143.06;;;12.43;33.77
53300;BME280;39187;48.476;8.310;2023-02-15T12:51:07;92137.44;;;12.37;33.54
53300;BME280;39187;48.476;8.310;2023-02-15T12:53:33;92140.91;;;12.88;33.09
53300;BME280;39187;48.476;8.310;2023-02-15T12:56:04;92134.72;;;12.95;33.04
53300;BME280;39187;48.476;8.310;2023-02-15T12:58:38;92131.91;;;13.05;32.84
53300;BME280;39187;48.476;8.310;2023-02-15T13:04:03;92126.19;;;13.03;32.71
53300;BME280;39187;48.476;8.310;2023-02-15T13:06:52;92129.25;;;12.78;32.96
53300;BME280;39187;48.476;8.310;2023-02-15T13:11:50;92125.72;;;13.08;33.18
53300;BME280;39187;48.476;8.310;2023-02-15T13:14:19;92133.66;;;12.89;33.18
53300;BME280;39187;48.476;8.310;2023-02-15T13:16:48;92127.34;;;12.79;33.08
53300;BME280;39187;48.476;8.310;2023-02-15T13:19:26;92113.94;;;13.06;33.09
53300;BME280;39187;48.476;8.310;2023-02-15T13:21:54;92116.84;;;12.92;33.15
53300;BME280;39187;48.476;8.310;2023-02-15T13:24:28;92118.78;;;13.14;32.90
53300;BME280;39187;48.476;8.310;2023-02-15T13:26:57;92115.03;;;13.08;33.26
53300;BME280;39187;48.476;8.310;2023-02-15T13:29:33;92118.69;;;13.21;32.83
53300;BME280;39187;48.476;8.310;2023-02-15T13:32:28;92111.00;;;13.23;32.58
53300;BME280;39187;48.476;8.310;2023-02-15T13:34:57;92107.97;;;13.21;32.78
53300;BME280;39187;48.476;8.310;2023-02-15T13:40:08;92100.63;;;13.02;33.17
53300;BME280;39187;48.476;8.310;2023-02-15T13:42:56;92095.56;;;12.84;32.96
53300;BME280;39187;48.476;8.310;2023-02-15T13:48:15;92087.75;;;12.70;32.37
53300;BME280;39187;48.476;8.310;2023-02-15T13:57:08;92093.84;;;12.48;32.41
53300;BME280;39187;48.476;8.310;2023-02-15T14:02:45;92087.09;;;12.90;31.84
53300;BME280;39187;48.476;8.310;2023-02-15T14:05:46;92081.25;;;12.98;31.91
53300;BME280;39187;48.476;8.310;2023-02-15T14:18:46;92096.03;;;13.03;30.75
53300;BME280;39187;48.476;8.310;2023-02-15T14:21:15;92089.94;;;12.79;31.01
53300;BME280;39187;48.476;8.310;2023-02-15T14:24:13;92087.69;;;12.74;31.61
53300;BME280;39187;48.476;8.310;2023-02-15T14:26:46;92082.44;;;12.94;31.32
53300;BME280;39187;48.476;8.310;2023-02-15T14:29:27;92089.81;;;12.86;31.98
53300;BME280;39187;48.476;8.310;2023-02-15T14:32:00;92092.06;;;12.88;31.74
53300;BME280;39187;48.476;8.310;2023-02-15T14:34:53;92086.47;;;12.28;32.10
53300;BME280;39187;48.476;8.310;2023-02-15T14:37:46;92091.75;;;12.59;32.18
53300;BME280;39187;48.476;8.310;2023-02-15T14:43:29;92089.19;;;12.78;31.87
53300;BME280;39187;48.476;8.310;2023-02-15T14:48:50;92084.16;;;12.57;32.08
53300;BME280;39187;48.476;8.310;2023-02-15T14:59:57;92090.63;;;12.56;32.18
53300;BME280;39187;48.476;8.310;2023-02-15T15:05:20;92094.47;;;12.55;32.22
53300;BME280;39187;48.476;8.310;2023-02-15T15:07:55;92095.38;;;12.45;32.16
53300;BME280;39187;48.476;8.310;2023-02-15T15:12:51;92102.38;;;12.35;32.06
53300;BME280;39187;48.476;8.310;2023-02-15T15:20:56;92100.72;;;12.45;32.01
53300;BME280;39187;48.476;8.310;2023-02-15T15:25:55;92100.88;;;12.34;31.93
53300;BME280;39187;48.476;8.310;2023-02-15T15:31:08;92098.38;;;11.90;31.84
53300;BME280;39187;48.476;8.310;2023-02-15T15:33:55;92100.44;;;12.09;31.85
53300;BME280;39187;48.476;8.310;2023-02-15T15:42:29;92100.44;;;12.09;32.37
53300;BME280;39187;48.476;8.310;2023-02-15T15:50:19;92107.88;;;11.91;34.28
53300;BME280;39187;48.476;8.310;2023-02-15T15:52:58;92108.56;;;11.98;33.41
53300;BME280;39187;48.476;8.310;2023-02-15T15:55:26;92101.38;;;11.92;34.20
53300;BME280;39187;48.476;8.310;2023-02-15T15:57:59;92096.81;;;11.92;33.51
53300;BME280;39187;48.476;8.310;2023-02-15T16:03:04;92104.13;;;11.88;33.57
53300;BME280;39187;48.476;8.310;2023-02-15T16:05:37;92103.72;;;11.90;33.56
53300;BME280;39187;48.476;8.310;2023-02-15T16:08:04;92099.97;;;11.84;33.87
53300;BME280;39187;48.476;8.310;2023-02-15T16:10:31;92106.09;;;11.81;33.77
53300;BME280;39187;48.476;8.310;2023-02-15T16:12:59;92106.53;;;11.76;33.28
53300;BME280;39187;48.476;8.310;2023-02-15T16:15:35;92106.97;;;11.71;34.05
53300;BME280;39187;48.476;8.310;2023-02-15T16:18:02;92112.38;;;11.63;34.53
53300;BME280;39187;48.476;8.310;2023-02-15T16:20:33;92110.88;;;11.59;34.36
53300;BME280;39187;48.476;8.310;2023-02-15T16:23:23;92108.69;;;11.50;34.94
53300;BME280;39187;48.476;8.310;2023-02-15T16:28:58;92113.03;;;11.34;35.93
53300;BME280;39187;48.476;8.310;2023-02-15T16:31:24;92120.75;;;11.24;36.15
53300;BME280;39187;48.476;8.310;2023-02-15T16:33:53;92121.19;;;11.16;36.28
53300;BME280;39187;48.476;8.310;2023-02-15T16:36:27;92124.31;;;11.07;36.57
53300;BME280;39187;48.476;8.310;2023-02-15T16:41:27;92121.03;;;10.89;37.56
53300;BME280;39187;48.476;8.310;2023-02-15T16:43:55;92124.91;;;10.81;37.90